sensor_id;sensor_type;location;lat;lon;timestamp;P1;durP1;ratioP1;P2;durP2;ratioP2
69822;SDS011;57119;52.516;13.508;2022-10-29T00:01:37;12.30;;;4.80;;
69822;SDS011;57119;52.516;13.508;2022-10-29T00:04:02;15.07;;;4.73;;
69822;SDS011;57119;52.516;13.508;2022-10-29T00:06:28;14.43;;;4.83;;
69822;SDS011;57119;52.516;13.508;2022-10-29T00:08:53;15.57;;;4.53;;
69822;SDS011;57119;52.516;13.508;2022-10-29T00:11:19;12.73;;;5.10;;
69822;SDS011;57119;52.516;13.508;2022-10-29T00:13:45;14.25;;;4.82;;
69822;SDS011;57119;52.516;13.508;2022-10-29T00:16:13;15.73;;;4.47;;
69822;SDS011;57119;52.516;13.508;2022-10-29T00:18:40;13.95;;;4.55;;
69822;SDS011;57119;52.516;13.508;2022-10-29T00:21:07;9.30;;;3.83;;
69822;SDS011;57119;52.516;13.508;2022-10-29T00:23:35;13.77;;;4.20;;
69822;SDS011;57119;52.516;13.508;2022-10-29T00:26:01;15.75;;;5.35;;
69822;SDS011;57119;52.516;13.508;2022-10-29T00:28:26;11.53;;;4.33;;
69822;SDS011;57119;52.516;13.508;2022-10-29T00:30:52;12.88;;;4.30;;
69822;SDS011;57119;52.516;13.508;2022-10-29T00:33:18;12.80;;;4.63;;
69822;SDS011;57119;52.516;13.508;2022-10-29T00:36:00;11.80;;;4.03;;
69822;SDS011;57119;52.516;13.508;2022-10-29T00:38:28;16.13;;;4.38;;
69822;SDS011;57119;52.516;13.508;2022-10-29T00:40:55;12.80;;;4.57;;
69822;SDS011;57119;52.516;13.508;2022-10-29T00:43:21;15.17;;;4.30;;
69822;SDS011;57119;52.516;13.508;2022-10-29T00:45:56;11.40;;;4.22;;
69822;SDS011;57119;52.516;13.508;2022-10-29T00:48:25;13.47;;;4.40;;
69822;SDS011;57119;52.516;13.508;2022-10-29T00:50:53;13.48;;;4.45;;
69822;SDS011;57119;52.516;13.508;2022-10-29T00:53:21;15.98;;;4.95;;
69822;SDS011;57119;52.516;13.508;2022-10-29T00:55:50;16.15;;;4.90;;
69822;SDS011;57119;52.516;13.508;2022-10-29T00:58:16;10.53;;;4.67;;
69822;SDS011;57119;52.516;13.508;2022-10-29T01:00:42;13.52;;;4.07;;
69822;SDS011;57119;52.516;13.508;2022-10-29T01:03:08;13.60;;;4.47;;
69822;SDS011;57119;52.516;13.508;2022-10-29T01:05:34;10.95;;;3.85;;
69822;SDS011;57119;52.516;13.508;2022-10-29T01:08:00;12.70;;;3.90;;
69822;SDS011;57119;52.516;13.508;2022-10-29T01:10:30;12.57;;;4.80;;
69822;SDS011;57119;52.516;13.508;2022-10-29T01:13:56;12.52;;;4.20;;
69822;SDS011;57119;52.516;13.508;2022-10-29T01:27:54;17.05;;;4.75;;
69822;SDS011;57119;52.516;13.508;2022-10-29T01:33:51;15.10;;;4.43;;
69822;SDS011;57119;52.516;13.508;2022-10-29T01:45:12;12.85;;;4.28;;
69822;SDS011;57119;52.516;13.508;2022-10-29T01:47:44;16.73;;;4.65;;
69822;SDS011;57119;52.516;13.508;2022-10-29T01:50:16;13.63;;;4.37;;
69822;SDS011;57119;52.516;13.508;2022-10-29T01:52:44;17.23;;;4.53;;
69822;SDS011;57119;52.516;13.508;2022-10-29T01:55:18;14.82;;;4.78;;
69822;SDS011;57119;52.516;13.508;2022-10-29T01:57:45;13.48;;;4.68;;
69822;SDS011;57119;52.516;13.508;2022-10-29T02:00:11;12.40;;;4.37;;
69822;SDS011;57119;52.516;13.508;2022-10-29T02:14:24;14.32;;;4.70;;
69822;SDS011;57119;52.516;13.508;2022-10-29T02:16:53;13.27;;;5.00;;
69822;SDS011;57119;52.516;13.508;2022-10-29T02:19:20;11.40;;;4.53;;
69822;SDS011;57119;52.516;13.508;2022-10-29T02:21:46;17.37;;;4.93;;
69822;SDS011;57119;52.516;13.508;2022-10-29T02:24:11;12.20;;;4.23;;
69822;SDS011;57119;52.516;13.508;2022-10-29T02:26:36;15.07;;;5.43;;
69822;SDS011;57119;52.516;13.508;2022-10-29T02:29:02;14.00;;;5.03;;
69822;SDS011;57119;52.516;13.508;2022-10-29T02:31:27;17.30;;;5.05;;
69822;SDS011;57119;52.516;13.508;2022-10-29T02:33:53;15.53;;;4.97;;
69822;SDS011;57119;52.516;13.508;2022-10-29T02:36:18;12.47;;;5.43;;
69822;SDS011;57119;52.516;13.508;2022-10-29T02:38:44;13.27;;;4.40;;
69822;SDS011;57119;52.516;13.508;2022-10-29T02:41:09;13.23;;;4.50;;
69822;SDS011;57119;52.516;13.508;2022-10-29T02:43:34;16.93;;;5.17;;
69822;SDS011;57119;52.516;13.508;2022-10-29T02:46:16;14.10;;;5.03;;
69822;SDS011;57119;52.516;13.508;2022-10-29T02:48:43;14.68;;;5.18;;
69822;SDS011;57119;52.516;13.508;2022-10-29T02:51:09;18.40;;;5.23;;
69822;SDS011;57119;52.516;13.508;2022-10-29T02:53:34;12.23;;;5.32;;
69822;SDS011;57119;52.516;13.508;2022-10-29T02:56:00;12.23;;;5.17;;
69822;SDS011;57119;52.516;13.508;2022-10-29T02:58:25;14.63;;;4.90;;
69822;SDS011;57119;52.516;13.508;2022-10-29T03:00:51;14.63;;;5.17;;
69822;SDS011;57119;52.516;13.508;2022-10-29T03:03:16;17.00;;;5.28;;
69822;SDS011;57119;52.516;13.508;2022-10-29T03:05:42;15.63;;;5.63;;
69822;SDS011;57119;52.516;13.508;2022-10-29T03:08:08;16.23;;;5.13;;
69822;SDS011;57119;52.516;13.508;2022-10-29T03:10:33;12.23;;;4.83;;
69822;SDS011;57119;52.516;13.508;2022-10-29T03:12:59;19.73;;;5.82;;
69822;SDS011;57119;52.516;13.508;2022-10-29T03:15:24;13.60;;;5.23;;
69822;SDS011;57119;52.516;13.508;2022-10-29T03:17:50;15.73;;;5.55;;
69822;SDS011;57119;52.516;13.508;2022-10-29T03:20:15;17.53;;;5.90;;
69822;SDS011;57119;52.516;13.508;2022-10-29T03:22:41;15.10;;;5.73;;
69822;SDS011;57119;52.516;13.508;2022-10-29T03:25:06;13.70;;;5.20;;
69822;SDS011;57119;52.516;13.508;2022-10-29T03:27:32;15.93;;;5.10;;
69822;SDS011;57119;52.516;13.508;2022-10-29T03:30:04;19.45;;;5.80;;
69822;SDS011;57119;52.516;13.508;2022-10-29T03:32:29;14.53;;;5.60;;
69822;SDS011;57119;52.516;13.508;2022-10-29T03:34:55;13.33;;;5.40;;
69822;SDS011;57119;52.516;13.508;2022-10-29T03:37:20;16.20;;;5.57;;
69822;SDS011;57119;52.516;13.508;2022-10-29T03:39:45;16.53;;;6.17;;
69822;SDS011;57119;52.516;13.508;2022-10-29T03:42:11;14.10;;;5.13;;
69822;SDS011;57119;52.516;13.508;2022-10-29T03:44:36;16.87;;;5.87;;
69822;SDS011;57119;52.516;13.508;2022-10-29T03:47:01;17.47;;;5.90;;
69822;SDS011;57119;52.516;13.508;2022-10-29T03:49:27;15.10;;;5.30;;
69822;SDS011;57119;52.516;13.508;2022-10-29T03:51:52;15.53;;;6.70;;
69822;SDS011;57119;52.516;13.508;2022-10-29T03:54:17;14.77;;;5.97;;
69822;SDS011;57119;52.516;13.508;2022-10-29T03:56:42;18.05;;;6.53;;
69822;SDS011;57119;52.516;13.508;2022-10-29T03:59:08;17.73;;;6.47;;
69822;SDS011;57119;52.516;13.508;2022-10-29T04:01:33;13.90;;;5.50;;
69822;SDS011;57119;52.516;13.508;2022-10-29T04:03:58;13.17;;;6.00;;
69822;SDS011;57119;52.516;13.508;2022-10-29T04:06:24;14.67;;;5.70;;
69822;SDS011;57119;52.516;13.508;2022-10-29T04:08:49;19.60;;;6.30;;
69822;SDS011;57119;52.516;13.508;2022-10-29T04:11:14;15.50;;;6.40;;
69822;SDS011;57119;52.516;13.508;2022-10-29T04:13:39;16.27;;;6.90;;
69822;SDS011;57119;52.516;13.508;2022-10-29T04:16:05;20.05;;;6.60;;
69822;SDS011;57119;52.516;13.508;2022-10-29T04:18:30;20.53;;;6.87;;
69822;SDS011;57119;52.516;13.508;2022-10-29T04:20:59;17.20;;;6.57;;
69822;SDS011;57119;52.516;13.508;2022-10-29T04:23:27;18.63;;;6.43;;
69822;SDS011;57119;52.516;13.508;2022-10-29T04:25:54;15.33;;;6.43;;
69822;SDS011;57119;52.516;13.508;2022-10-29T04:28:22;14.80;;;5.78;;
69822;SDS011;57119;52.516;13.508;2022-10-29T04:30:48;17.97;;;6.93;;
69822;SDS011;57119;52.516;13.508;2022-10-29T04:33:13;17.17;;;7.53;;
69822;SDS011;57119;52.516;13.508;2022-10-29T04:35:39;14.83;;;5.93;;
69822;SDS011;57119;52.516;13.508;2022-10-29T04:38:08;17.13;;;6.80;;
69822;SDS011;57119;52.516;13.508;2022-10-29T04:40:36;16.00;;;6.57;;
69822;SDS011;57119;52.516;13.508;2022-10-29T04:43:02;16.38;;;6.32;;
69822;SDS011;57119;52.516;13.508;2022-10-29T04:45:28;17.33;;;6.67;;
69822;SDS011;57119;52.516;13.508;2022-10-29T04:48:02;12.00;;;6.17;;
69822;SDS011;57119;52.516;13.508;2022-10-29T04:50:30;17.20;;;6.53;;
69822;SDS011;57119;52.516;13.508;2022-10-29T04:52:56;17.97;;;6.77;;
69822;SDS011;57119;52.516;13.508;2022-10-29T04:55:26;21.05;;;6.72;;
69822;SDS011;57119;52.516;13.508;2022-10-29T04:57:52;16.38;;;6.18;;
69822;SDS011;57119;52.516;13.508;2022-10-29T05:00:18;16.25;;;6.50;;
69822;SDS011;57119;52.516;13.508;2022-10-29T05:02:50;17.07;;;6.03;;
69822;SDS011;57119;52.516;13.508;2022-10-29T05:05:17;15.93;;;6.97;;
69822;SDS011;57119;52.516;13.508;2022-10-29T05:07:44;16.83;;;7.15;;
69822;SDS011;57119;52.516;13.508;2022-10-29T05:10:09;17.40;;;7.13;;
69822;SDS011;57119;52.516;13.508;2022-10-29T05:12:35;19.00;;;7.57;;
69822;SDS011;57119;52.516;13.508;2022-10-29T05:15:01;18.87;;;7.00;;
69822;SDS011;57119;52.516;13.508;2022-10-29T05:17:27;17.88;;;6.55;;
69822;SDS011;57119;52.516;13.508;2022-10-29T05:19:52;16.83;;;6.83;;
69822;SDS011;57119;52.516;13.508;2022-10-29T05:22:17;17.93;;;6.73;;
69822;SDS011;57119;52.516;13.508;2022-10-29T05:24:43;17.90;;;6.20;;
69822;SDS011;57119;52.516;13.508;2022-10-29T05:27:08;13.30;;;5.97;;
69822;SDS011;57119;52.516;13.508;2022-10-29T05:29:33;18.90;;;7.15;;
69822;SDS011;57119;52.516;13.508;2022-10-29T05:31:59;13.97;;;6.30;;
69822;SDS011;57119;52.516;13.508;2022-10-29T05:34:24;16.87;;;6.90;;
69822;SDS011;57119;52.516;13.508;2022-10-29T05:36:49;16.73;;;6.77;;
69822;SDS011;57119;52.516;13.508;2022-10-29T05:39:15;19.13;;;7.63;;
69822;SDS011;57119;52.516;13.508;2022-10-29T05:41:40;22.40;;;7.80;;
69822;SDS011;57119;52.516;13.508;2022-10-29T05:44:06;18.77;;;7.47;;
69822;SDS011;57119;52.516;13.508;2022-10-29T05:46:31;16.10;;;6.97;;
69822;SDS011;57119;52.516;13.508;2022-10-29T05:48:56;17.10;;;7.07;;
69822;SDS011;57119;52.516;13.508;2022-10-29T05:51:22;18.00;;;7.70;;
69822;SDS011;57119;52.516;13.508;2022-10-29T05:53:47;15.70;;;7.00;;
69822;SDS011;57119;52.516;13.508;2022-10-29T05:56:13;19.30;;;7.77;;
69822;SDS011;57119;52.516;13.508;2022-10-29T05:58:39;16.50;;;7.03;;
69822;SDS011;57119;52.516;13.508;2022-10-29T06:01:05;16.67;;;6.50;;
69822;SDS011;57119;52.516;13.508;2022-10-29T06:03:31;23.10;;;6.63;;
69822;SDS011;57119;52.516;13.508;2022-10-29T06:05:56;23.73;;;9.67;;
69822;SDS011;57119;52.516;13.508;2022-10-29T06:08:22;17.50;;;7.93;;
69822;SDS011;57119;52.516;13.508;2022-10-29T06:10:47;18.70;;;7.55;;
69822;SDS011;57119;52.516;13.508;2022-10-29T06:13:16;18.93;;;7.83;;
69822;SDS011;57119;52.516;13.508;2022-10-29T06:15:43;21.90;;;9.67;;
69822;SDS011;57119;52.516;13.508;2022-10-29T06:18:09;17.98;;;6.70;;
69822;SDS011;57119;52.516;13.508;2022-10-29T06:20:35;19.67;;;6.50;;
69822;SDS011;57119;52.516;13.508;2022-10-29T06:23:02;15.30;;;6.80;;
69822;SDS011;57119;52.516;13.508;2022-10-29T06:25:28;18.52;;;6.43;;
69822;SDS011;57119;52.516;13.508;2022-10-29T06:28:00;16.20;;;7.00;;
69822;SDS011;57119;52.516;13.508;2022-10-29T06:30:28;17.73;;;6.57;;
69822;SDS011;57119;52.516;13.508;2022-10-29T06:32:54;15.20;;;7.22;;
69822;SDS011;57119;52.516;13.508;2022-10-29T06:35:20;16.70;;;5.77;;
69822;SDS011;57119;52.516;13.508;2022-10-29T06:37:45;17.75;;;6.63;;
69822;SDS011;57119;52.516;13.508;2022-10-29T06:40:11;17.83;;;5.90;;
69822;SDS011;57119;52.516;13.508;2022-10-29T06:42:36;17.17;;;6.37;;
69822;SDS011;57119;52.516;13.508;2022-10-29T06:45:02;20.53;;;6.57;;
69822;SDS011;57119;52.516;13.508;2022-10-29T06:47:27;18.65;;;6.13;;
69822;SDS011;57119;52.516;13.508;2022-10-29T06:49:52;20.97;;;8.13;;
69822;SDS011;57119;52.516;13.508;2022-10-29T06:52:18;15.83;;;6.53;;
69822;SDS011;57119;52.516;13.508;2022-10-29T06:54:43;19.90;;;6.93;;
69822;SDS011;57119;52.516;13.508;2022-10-29T06:57:09;17.00;;;6.23;;
69822;SDS011;57119;52.516;13.508;2022-10-29T06:59:34;12.80;;;6.10;;
69822;SDS011;57119;52.516;13.508;2022-10-29T07:01:59;14.87;;;6.37;;
69822;SDS011;57119;52.516;13.508;2022-10-29T07:04:24;20.43;;;6.40;;
69822;SDS011;57119;52.516;13.508;2022-10-29T07:06:50;22.30;;;6.53;;
69822;SDS011;57119;52.516;13.508;2022-10-29T07:09:15;14.87;;;6.97;;
69822;SDS011;57119;52.516;13.508;2022-10-29T07:11:40;14.10;;;6.07;;
69822;SDS011;57119;52.516;13.508;2022-10-29T07:14:06;16.27;;;6.40;;
69822;SDS011;57119;52.516;13.508;2022-10-29T07:16:33;18.02;;;6.55;;
69822;SDS011;57119;52.516;13.508;2022-10-29T07:18:59;18.00;;;6.67;;
69822;SDS011;57119;52.516;13.508;2022-10-29T07:21:24;18.52;;;6.55;;
69822;SDS011;57119;52.516;13.508;2022-10-29T07:23:49;14.37;;;6.23;;
69822;SDS011;57119;52.516;13.508;2022-10-29T07:26:15;14.87;;;5.77;;
69822;SDS011;57119;52.516;13.508;2022-10-29T07:28:40;15.30;;;5.67;;
69822;SDS011;57119;52.516;13.508;2022-10-29T07:31:05;19.43;;;6.23;;
69822;SDS011;57119;52.516;13.508;2022-10-29T07:33:31;16.48;;;6.40;;
69822;SDS011;57119;52.516;13.508;2022-10-29T07:35:57;16.50;;;5.73;;
69822;SDS011;57119;52.516;13.508;2022-10-29T07:38:23;17.17;;;6.18;;
69822;SDS011;57119;52.516;13.508;2022-10-29T07:40:49;17.38;;;6.00;;
69822;SDS011;57119;52.516;13.508;2022-10-29T07:43:16;14.47;;;5.57;;
69822;SDS011;57119;52.516;13.508;2022-10-29T07:45:43;16.58;;;6.53;;
69822;SDS011;57119;52.516;13.508;2022-10-29T07:48:10;15.25;;;6.50;;
69822;SDS011;57119;52.516;13.508;2022-10-29T07:50:35;15.73;;;6.03;;
69822;SDS011;57119;52.516;13.508;2022-10-29T07:53:02;15.50;;;5.85;;
69822;SDS011;57119;52.516;13.508;2022-10-29T07:55:29;18.88;;;6.00;;
69822;SDS011;57119;52.516;13.508;2022-10-29T07:57:58;14.60;;;6.37;;
69822;SDS011;57119;52.516;13.508;2022-10-29T08:00:29;15.80;;;6.38;;
69822;SDS011;57119;52.516;13.508;2022-10-29T08:02:56;21.17;;;6.28;;
69822;SDS011;57119;52.516;13.508;2022-10-29T08:05:22;17.83;;;6.07;;
69822;SDS011;57119;52.516;13.508;2022-10-29T08:07:48;16.17;;;5.47;;
69822;SDS011;57119;52.516;13.508;2022-10-29T08:10:14;12.07;;;5.77;;
69822;SDS011;57119;52.516;13.508;2022-10-29T08:12:47;14.77;;;6.07;;
69822;SDS011;57119;52.516;13.508;2022-10-29T08:15:13;13.68;;;5.95;;
69822;SDS011;57119;52.516;13.508;2022-10-29T08:17:38;14.57;;;6.50;;
69822;SDS011;57119;52.516;13.508;2022-10-29T08:20:04;12.43;;;5.80;;
69822;SDS011;57119;52.516;13.508;2022-10-29T08:22:29;17.83;;;5.78;;
69822;SDS011;57119;52.516;13.508;2022-10-29T08:24:55;12.73;;;5.23;;
69822;SDS011;57119;52.516;13.508;2022-10-29T08:27:20;17.40;;;6.13;;
69822;SDS011;57119;52.516;13.508;2022-10-29T08:29:45;14.37;;;5.87;;
69822;SDS011;57119;52.516;13.508;2022-10-29T08:32:11;12.17;;;6.17;;
69822;SDS011;57119;52.516;13.508;2022-10-29T08:34:36;16.87;;;6.07;;
69822;SDS011;57119;52.516;13.508;2022-10-29T08:37:01;17.20;;;6.20;;
69822;SDS011;57119;52.516;13.508;2022-10-29T08:39:27;18.65;;;6.50;;
69822;SDS011;57119;52.516;13.508;2022-10-29T08:42:01;13.73;;;6.00;;
69822;SDS011;57119;52.516;13.508;2022-10-29T08:47:23;19.67;;;7.07;;
69822;SDS011;57119;52.516;13.508;2022-10-29T08:52:43;14.02;;;7.55;;
69822;SDS011;57119;52.516;13.508;2022-10-29T08:57:58;15.38;;;5.93;;
69822;SDS011;57119;52.516;13.508;2022-10-29T09:00:35;13.68;;;6.50;;
69822;SDS011;57119;52.516;13.508;2022-10-29T09:03:08;20.90;;;6.75;;
69822;SDS011;57119;52.516;13.508;2022-10-29T09:06:18;15.40;;;6.35;;
69822;SDS011;57119;52.516;13.508;2022-10-29T09:22:37;14.03;;;7.07;;
69822;SDS011;57119;52.516;13.508;2022-10-29T09:25:16;15.88;;;7.28;;
69822;SDS011;57119;52.516;13.508;2022-10-29T09:31:12;16.52;;;6.82;;
69822;SDS011;57119;52.516;13.508;2022-10-29T09:33:33;17.50;;;6.82;;
69822;SDS011;57119;52.516;13.508;2022-10-29T09:35:59;16.33;;;6.10;;
69822;SDS011;57119;52.516;13.508;2022-10-29T09:38:25;16.58;;;6.35;;
69822;SDS011;57119;52.516;13.508;2022-10-29T09:40:56;16.33;;;6.87;;
69822;SDS011;57119;52.516;13.508;2022-10-29T09:43:27;16.80;;;6.25;;
69822;SDS011;57119;52.516;13.508;2022-10-29T09:48:36;16.98;;;6.72;;
69822;SDS011;57119;52.516;13.508;2022-10-29T09:51:32;15.63;;;6.15;;
69822;SDS011;57119;52.516;13.508;2022-10-29T09:54:04;13.93;;;5.87;;
69822;SDS011;57119;52.516;13.508;2022-10-29T09:56:30;14.80;;;5.75;;
69822;SDS011;57119;52.516;13.508;2022-10-29T09:58:57;15.17;;;5.70;;
69822;SDS011;57119;52.516;13.508;2022-10-29T10:01:42;17.67;;;6.05;;
69822;SDS011;57119;52.516;13.508;2022-10-29T10:04:18;16.52;;;6.25;;
69822;SDS011;57119;52.516;13.508;2022-10-29T10:07:06;14.65;;;6.90;;
69822;SDS011;57119;52.516;13.508;2022-10-29T10:12:26;16.83;;;6.07;;
69822;SDS011;57119;52.516;13.508;2022-10-29T10:20:37;13.45;;;5.03;;
69822;SDS011;57119;52.516;13.508;2022-10-29T10:23:18;14.53;;;5.67;;
69822;SDS011;57119;52.516;13.508;2022-10-29T10:25:46;17.38;;;5.68;;
69822;SDS011;57119;52.516;13.508;2022-10-29T10:28:14;18.38;;;5.25;;
69822;SDS011;57119;52.516;13.508;2022-10-29T10:31:10;12.87;;;5.20;;
69822;SDS011;57119;52.516;13.508;2022-10-29T10:33:43;17.58;;;5.85;;
69822;SDS011;57119;52.516;13.508;2022-10-29T10:36:14;14.93;;;6.28;;
69822;SDS011;57119;52.516;13.508;2022-10-29T10:38:42;15.88;;;6.25;;
69822;SDS011;57119;52.516;13.508;2022-10-29T10:41:10;11.95;;;5.78;;
69822;SDS011;57119;52.516;13.508;2022-10-29T10:43:40;18.33;;;7.73;;
69822;SDS011;57119;52.516;13.508;2022-10-29T10:46:25;14.45;;;6.50;;
69822;SDS011;57119;52.516;13.508;2022-10-29T10:49:13;15.23;;;6.75;;
69822;SDS011;57119;52.516;13.508;2022-10-29T10:52:00;13.00;;;5.82;;
69822;SDS011;57119;52.516;13.508;2022-10-29T10:54:30;15.70;;;7.43;;
69822;SDS011;57119;52.516;13.508;2022-10-29T10:57:02;16.37;;;6.60;;
69822;SDS011;57119;52.516;13.508;2022-10-29T11:00:02;18.60;;;6.70;;
69822;SDS011;57119;52.516;13.508;2022-10-29T11:02:36;17.50;;;7.07;;
69822;SDS011;57119;52.516;13.508;2022-10-29T11:05:08;16.35;;;6.50;;
69822;SDS011;57119;52.516;13.508;2022-10-29T11:07:40;16.55;;;6.45;;
69822;SDS011;57119;52.516;13.508;2022-10-29T11:13:28;14.32;;;6.10;;
69822;SDS011;57119;52.516;13.508;2022-10-29T11:21:34;12.73;;;6.07;;
69822;SDS011;57119;52.516;13.508;2022-10-29T11:24:08;14.00;;;6.53;;
69822;SDS011;57119;52.516;13.508;2022-10-29T11:26:41;16.35;;;6.45;;
69822;SDS011;57119;52.516;13.508;2022-10-29T11:32:18;14.20;;;7.22;;
69822;SDS011;57119;52.516;13.508;2022-10-29T11:37:42;15.83;;;6.77;;
69822;SDS011;57119;52.516;13.508;2022-10-29T11:40:20;16.02;;;5.35;;
69822;SDS011;57119;52.516;13.508;2022-10-29T11:42:48;16.95;;;5.93;;
69822;SDS011;57119;52.516;13.508;2022-10-29T11:45:15;15.80;;;5.90;;
69822;SDS011;57119;52.516;13.508;2022-10-29T11:56:06;15.23;;;6.68;;
69822;SDS011;57119;52.516;13.508;2022-10-29T12:04:16;14.13;;;5.87;;
69822;SDS011;57119;52.516;13.508;2022-10-29T12:12:24;16.05;;;6.65;;
69822;SDS011;57119;52.516;13.508;2022-10-29T12:20:33;14.02;;;5.65;;
69822;SDS011;57119;52.516;13.508;2022-10-29T12:31:22;14.73;;;5.77;;
69822;SDS011;57119;52.516;13.508;2022-10-29T12:34:12;15.77;;;5.93;;
69822;SDS011;57119;52.516;13.508;2022-10-29T12:36:53;14.43;;;5.80;;
69822;SDS011;57119;52.516;13.508;2022-10-29T12:39:25;15.10;;;6.40;;
69822;SDS011;57119;52.516;13.508;2022-10-29T12:41:55;15.88;;;6.10;;
69822;SDS011;57119;52.516;13.508;2022-10-29T12:44:43;13.63;;;5.93;;
69822;SDS011;57119;52.516;13.508;2022-10-29T12:55:48;13.88;;;6.53;;
69822;SDS011;57119;52.516;13.508;2022-10-29T13:11:43;13.03;;;6.30;;
69822;SDS011;57119;52.516;13.508;2022-10-29T13:14:12;17.38;;;6.57;;
69822;SDS011;57119;52.516;13.508;2022-10-29T13:16:43;14.45;;;6.53;;
69822;SDS011;57119;52.516;13.508;2022-10-29T13:19:15;16.98;;;6.53;;
69822;SDS011;57119;52.516;13.508;2022-10-29T13:22:02;14.55;;;6.30;;
69822;SDS011;57119;52.516;13.508;2022-10-29T13:24:31;12.83;;;6.77;;
69822;SDS011;57119;52.516;13.508;2022-10-29T13:27:00;18.77;;;7.13;;
69822;SDS011;57119;52.516;13.508;2022-10-29T13:29:42;10.17;;;5.50;;
69822;SDS011;57119;52.516;13.508;2022-10-29T13:32:28;12.90;;;5.55;;
69822;SDS011;57119;52.516;13.508;2022-10-29T13:34:54;15.00;;;5.85;;
69822;SDS011;57119;52.516;13.508;2022-10-29T13:43:00;14.00;;;6.20;;
69822;SDS011;57119;52.516;13.508;2022-10-29T13:45:28;13.65;;;6.03;;
69822;SDS011;57119;52.516;13.508;2022-10-29T13:48:04;18.15;;;6.45;;
69822;SDS011;57119;52.516;13.508;2022-10-29T13:50:36;16.08;;;5.82;;
69822;SDS011;57119;52.516;13.508;2022-10-29T13:53:04;16.42;;;6.30;;
69822;SDS011;57119;52.516;13.508;2022-10-29T13:55:32;17.43;;;8.10;;
69822;SDS011;57119;52.516;13.508;2022-10-29T14:00:58;15.45;;;6.07;;
69822;SDS011;57119;52.516;13.508;2022-10-29T14:03:32;14.55;;;6.30;;
69822;SDS011;57119;52.516;13.508;2022-10-29T14:06:08;18.90;;;6.63;;
69822;SDS011;57119;52.516;13.508;2022-10-29T14:08:42;14.93;;;5.40;;
69822;SDS011;57119;52.516;13.508;2022-10-29T14:11:35;14.90;;;5.63;;
69822;SDS011;57119;52.516;13.508;2022-10-29T14:14:03;13.45;;;5.60;;
69822;SDS011;57119;52.516;13.508;2022-10-29T14:16:43;15.50;;;5.82;;
69822;SDS011;57119;52.516;13.508;2022-10-29T14:19:12;15.87;;;6.60;;
69822;SDS011;57119;52.516;13.508;2022-10-29T14:21:38;17.63;;;6.40;;
69822;SDS011;57119;52.516;13.508;2022-10-29T14:24:05;14.93;;;6.00;;
69822;SDS011;57119;52.516;13.508;2022-10-29T14:26:35;14.18;;;6.43;;
69822;SDS011;57119;52.516;13.508;2022-10-29T14:32:13;16.35;;;6.30;;
69822;SDS011;57119;52.516;13.508;2022-10-29T14:34:39;12.75;;;5.90;;
69822;SDS011;57119;52.516;13.508;2022-10-29T14:37:07;16.67;;;7.30;;
69822;SDS011;57119;52.516;13.508;2022-10-29T14:39:49;19.08;;;6.88;;
69822;SDS011;57119;52.516;13.508;2022-10-29T14:42:20;14.57;;;7.30;;
69822;SDS011;57119;52.516;13.508;2022-10-29T14:44:53;16.58;;;6.22;;
69822;SDS011;57119;52.516;13.508;2022-10-29T14:47:30;16.98;;;6.68;;
69822;SDS011;57119;52.516;13.508;2022-10-29T14:50:03;16.33;;;6.50;;
69822;SDS011;57119;52.516;13.508;2022-10-29T14:52:38;16.98;;;6.50;;
69822;SDS011;57119;52.516;13.508;2022-10-29T14:55:06;16.25;;;6.18;;
69822;SDS011;57119;52.516;13.508;2022-10-29T14:57:39;15.00;;;7.00;;
69822;SDS011;57119;52.516;13.508;2022-10-29T15:00:20;16.40;;;6.72;;
69822;SDS011;57119;52.516;13.508;2022-10-29T15:02:51;16.77;;;6.97;;
69822;SDS011;57119;52.516;13.508;2022-10-29T15:05:28;15.65;;;6.90;;
69822;SDS011;57119;52.516;13.508;2022-10-29T15:13:28;16.13;;;6.60;;
69822;SDS011;57119;52.516;13.508;2022-10-29T15:18:24;20.40;;;7.03;;
69822;SDS011;57119;52.516;13.508;2022-10-29T15:20:50;16.50;;;6.13;;
69822;SDS011;57119;52.516;13.508;2022-10-29T15:23:28;13.00;;;6.05;;
69822;SDS011;57119;52.516;13.508;2022-10-29T15:28:35;16.97;;;6.23;;
69822;SDS011;57119;52.516;13.508;2022-10-29T15:31:03;12.70;;;5.78;;
69822;SDS011;57119;52.516;13.508;2022-10-29T15:33:29;14.23;;;6.38;;
69822;SDS011;57119;52.516;13.508;2022-10-29T15:35:56;17.50;;;6.82;;
69822;SDS011;57119;52.516;13.508;2022-10-29T15:43:31;16.02;;;6.03;;
69822;SDS011;57119;52.516;13.508;2022-10-29T15:45:57;15.87;;;6.43;;
69822;SDS011;57119;52.516;13.508;2022-10-29T15:48:33;16.23;;;6.43;;
69822;SDS011;57119;52.516;13.508;2022-10-29T15:51:01;16.50;;;6.78;;
69822;SDS011;57119;52.516;13.508;2022-10-29T15:53:27;16.23;;;6.90;;
69822;SDS011;57119;52.516;13.508;2022-10-29T15:55:52;16.30;;;6.10;;
69822;SDS011;57119;52.516;13.508;2022-10-29T15:58:21;16.00;;;6.10;;
69822;SDS011;57119;52.516;13.508;2022-10-29T16:00:47;16.98;;;6.88;;
69822;SDS011;57119;52.516;13.508;2022-10-29T16:05:43;12.17;;;5.80;;
69822;SDS011;57119;52.516;13.508;2022-10-29T16:08:19;14.20;;;6.40;;
69822;SDS011;57119;52.516;13.508;2022-10-29T16:10:48;12.63;;;5.57;;
69822;SDS011;57119;52.516;13.508;2022-10-29T16:13:14;15.70;;;6.25;;
69822;SDS011;57119;52.516;13.508;2022-10-29T16:15:41;23.58;;;10.98;;
69822;SDS011;57119;52.516;13.508;2022-10-29T16:18:06;19.23;;;10.00;;
69822;SDS011;57119;52.516;13.508;2022-10-29T16:20:32;14.47;;;6.23;;
69822;SDS011;57119;52.516;13.508;2022-10-29T16:22:57;17.07;;;7.00;;
69822;SDS011;57119;52.516;13.508;2022-10-29T16:25:24;17.43;;;6.60;;
69822;SDS011;57119;52.516;13.508;2022-10-29T16:27:50;14.73;;;5.70;;
69822;SDS011;57119;52.516;13.508;2022-10-29T16:30:16;16.33;;;5.97;;
69822;SDS011;57119;52.516;13.508;2022-10-29T16:32:43;16.43;;;7.07;;
69822;SDS011;57119;52.516;13.508;2022-10-29T16:35:12;15.30;;;5.90;;
69822;SDS011;57119;52.516;13.508;2022-10-29T16:37:40;15.30;;;7.57;;
69822;SDS011;57119;52.516;13.508;2022-10-29T16:40:05;17.73;;;8.00;;
69822;SDS011;57119;52.516;13.508;2022-10-29T16:42:34;16.10;;;8.60;;
69822;SDS011;57119;52.516;13.508;2022-10-29T16:45:00;13.68;;;6.60;;
69822;SDS011;57119;52.516;13.508;2022-10-29T16:47:25;18.93;;;7.17;;
69822;SDS011;57119;52.516;13.508;2022-10-29T16:49:51;18.80;;;7.18;;
69822;SDS011;57119;52.516;13.508;2022-10-29T16:52:17;16.53;;;7.50;;
69822;SDS011;57119;52.516;13.508;2022-10-29T16:54:42;19.93;;;7.83;;
69822;SDS011;57119;52.516;13.508;2022-10-29T16:57:07;13.90;;;6.50;;
69822;SDS011;57119;52.516;13.508;2022-10-29T16:59:33;17.23;;;6.65;;
69822;SDS011;57119;52.516;13.508;2022-10-29T17:01:58;21.30;;;7.93;;
69822;SDS011;57119;52.516;13.508;2022-10-29T17:04:24;17.85;;;7.85;;
69822;SDS011;57119;52.516;13.508;2022-10-29T17:06:50;17.63;;;7.43;;
69822;SDS011;57119;52.516;13.508;2022-10-29T17:09:15;16.33;;;7.93;;
69822;SDS011;57119;52.516;13.508;2022-10-29T17:11:40;18.60;;;7.93;;
69822;SDS011;57119;52.516;13.508;2022-10-29T17:14:06;17.80;;;9.07;;
69822;SDS011;57119;52.516;13.508;2022-10-29T17:16:31;17.75;;;7.90;;
69822;SDS011;57119;52.516;13.508;2022-10-29T17:18:56;18.60;;;8.37;;
69822;SDS011;57119;52.516;13.508;2022-10-29T17:21:22;17.00;;;8.70;;
69822;SDS011;57119;52.516;13.508;2022-10-29T17:23:48;13.88;;;8.60;;